Alpine, NY

2:39 AM EST on February 01, 2015 (GMT -0500)
Upstate newyork | Change Station
CLOSE
Current Station
Personal Weather Station
Location: Odessa, NY
Elevation: 1063 ft
Nearby Weather Stations
Active Advisory: Winter Storm Warning

Elev 1063 ft 42.34 °N, 76.79 °W | Updated 7 minutes ago

Overcast
Overcast
18.4 °F
Feels Like 18 °F
N
2.0
Wind Variable Wind from SSE
Gusts 3.0 mph

Today
High -- | Low -- °F
--% Chance of Precip.
Yesterday
High -- | Low -- °F
Precip. -- in
7:20 AM 5:20 PM
Waxing Gibbous, 94% visible
Pressure 30.19 in
Visibility 10.0 miles
Clouds Overcast 2900 ft
Windchill 18 °F
Dew Point 14 °F
Humidity 81%
Rainfall 0.00 in
Snow Depth Not available.
UV 0.0 out of 12
Pollen .10 out of 12
Air Quality Not available.
Flu Activity Not available.
METAR KELM 010653Z AUTO 00000KT 10SM OVC029 M09/M13 A3014 RMK AO2 SLP222 T10941128

More Conditions Fewer Conditions

Pressure 30.19 in
Visibility 10.0 miles
Clouds Overcast 2900 ft
Windchill 18 °F
Dew Point 14 °F
Humidity 81%
Rainfall 0.00 in
Snow Depth Not available.
UV 0.0 out of 12
Pollen .10 out of 12
Air Quality Not available.
Flu Activity Not available.
METAR KELM 010653Z AUTO 00000KT 10SM OVC029 M09/M13 A3014 RMK AO2 SLP222 T10941128

More Conditions Fewer Conditions

10-Day Weather Forecast

Almanac

Astronomy

Feb. 01, 2015 Rise Set
Actual Time
Civil Twilight
Nautical Twilight
Astronomical Twilight
Moon
Length of Visible Light
Length of Day
Tomorrow will be .
, % of the Moon is Illuminated

Today's Extremes

State Highs State Lows

Community

WunderPhotos

Upload Photos

1,792,325 photos uploaded!

WunderBlogs® & News

Nearby

Air Quality

  Air Quality AQ Index Pollutant
Not available.

Snow Depth

Station Depth Elevation

Earthquake Activity

City Distance Mag. Time & Date
Minimum magnitude displayed is 2.5.

Coastal Water Temperatures

Place Temperature

Nearby Weather Stations